Norwalk, CT

9:59 PM EST on February 27, 2015 (GMT -0500)
Cranbury | Change Station
CLOSE
Current Station
Personal Weather Station
Location: Norwalk, CT
Elevation: 86 ft
Nearby Weather Stations

Elev 86 ft 41.14 °N, 73.40 °W | Updated 6 seconds ago

Clear
Clear
17.5 °F
Feels Like 18 °F
N
0.0
Wind Variable Wind from NNW
Gusts 6.0 mph

Today
High -- | Low -- °F
--% Chance of Precip.
Yesterday
High -- | Low -- °F
Precip. -- in
6:31 AM 5:42 PM
Waxing Gibbous, 73% visible
Pressure 30.55 in
Visibility 10.0 miles
Clouds Clear
Windchill 18 °F
Dew Point 6 °F
Humidity 60%
Rainfall 0.00 in
Snow Depth Not available.
UV 0 out of 12
Pollen .40 out of 12
Air Quality Not available.
Flu Activity Not available.
METAR KHPN 280156Z 31011KT 10SM CLR M06/M18 A3051 RMK AO2 SLP344 T10611183

More Conditions Fewer Conditions

Pressure 30.55 in
Visibility 10.0 miles
Clouds Clear
Windchill 18 °F
Dew Point 6 °F
Humidity 60%
Rainfall 0.00 in
Snow Depth Not available.
UV 0 out of 12
Pollen .40 out of 12
Air Quality Not available.
Flu Activity Not available.
METAR KHPN 280156Z 31011KT 10SM CLR M06/M18 A3051 RMK AO2 SLP344 T10611183

More Conditions Fewer Conditions

10-Day Weather Forecast

Almanac

Astronomy

Feb. 27, 2015 Rise Set
Actual Time
Civil Twilight
Nautical Twilight
Astronomical Twilight
Moon
Length of Visible Light
Length of Day
Tomorrow will be .
, % of the Moon is Illuminated

Today's Extremes

State Highs State Lows

Community

WunderPhotos

Upload Photos

1,800,943 photos uploaded!

WunderBlogs® & News

Nearby

Air Quality

  Air Quality AQ Index Pollutant
Not available.

Snow Depth

Station Depth Elevation

Earthquake Activity

City Distance Mag. Time & Date
Minimum magnitude displayed is 2.5.

Coastal Water Temperatures

Place Temperature

Nearby Weather Stations